Decoded Metar for KMOB (MOBILE in AL, USA) (IATA:MOB) | Meteo·Mobile Aviation Weather
aviador You're here:

KMOB Decoded Metar

MOBILE in AL, USA
Report Time2019-02-16 16:56:00
UTC Time2019-02-16 17:08:18
Flight Rules vfr VFR
Wind310° at 07 kt
W.Decomp.*RWY 32: 6.9 kt HW 1.1 kt LCW
RWY 36: 4.6 kt HW 5.3 kt LCW
W.Rank310° ranks 18
Current wind is above 310° avg. (5.4)
Visibility9999 m
Phenomena:N/A
Clouds:Scattered 017 Hf
Broken 250 Hf
Expected CloudBase > 2,000 ft AGL from Temp-Dew spread
Ceiling25,000 ft
Temp23°C (ISA +8)
Dew Point18°C (74% RH)
QNH1011 hPa
Density Alt1,526 ft
Elevation207 ft
Report Wrong Elevation
Raw Report
KMOB 161656Z 31007KT 10SM SCT017 BKN250 23/18 A2985 RMK AO2 SLP104
T02330178=

Extra information for KMOB:More info

Metar Taf Metar & Taf Last 4 Metars F.Rules Stats Wind Profile Meteogram Temp Stats Airport Information Weather charts Add Link Nearby VenuesMetar ALERT Operation Metar Decoded Social comments

AIRNAV info for KMOB